Terminal Aerodrome Forecast
Issued by NWS

Home | Current Version | Previous Version | Graphics & Text | Print | Product List | Glossary On
Versions: 1 2 3 4 5 6 7 8 9 10 11 12 13 14 15 16 17 18 19 20 21
536
FTUS43 KPAH 230223 AAB
TAFCGI
TAF AMD
KCGI 230223Z 2302/2324 14006KT P6SM VCTS SCT025 BKN045CB
      TEMPO 2302/2306 2SM TSRA BR BKN025CB OVC040
     FM230900 19007KT 5SM SHRA VCTS OVC015CB
     FM231300 18008KT 3SM +SHRA OVC008
     FM232000 33010KT P6SM SCT025 OVC040=

USA.gov is the U.S. government's official web portal to all federal, state and local government web resources and services.